• Join FlightAware (Why Join?)
  • Login
  • US Flag 
09:28PM EDT


 

Airport Tracker/Info


-or-


 

Live Flight TrackerFlight Track Log ✈ UPS213 ✈ 13-Nov-2013 ✈ KSDF - EDDK / CGN

Flight Track Log - Related Links

Times and Time Zones

All times are in EST time to prevent confusion due to time zone crossing. See the UPS213 flight status page for this flight to view local times or setup timezone preferences in your user account.

Time Position Orientation Groundspeed Altitude Reporting Facility
EST Latitude Longitude Course Direction KTS MPH feet Rate Location/Type
05:02AM 38.1690 -85.7430 270° West 165 190  Level FlightAware
05:03AM 38.1400 -85.7330 165° South 193 222 1,100 1,560 Climbing FlightAware
05:04AM 38.1090 -85.7230 166° South 240 276 1,700 1,320 Climbing FlightAware
05:04AM 38.0740 -85.7110 165° South 270 311 2,500 2,160 Climbing FlightAware
05:05AM 38.0420 -85.6740 138° Southeast 281 323 4,100 2,820 Climbing FlightAware
05:05AM 38.0330 -85.6090 100° East 284 327 6,100 2,700 Climbing FlightAware
05:06AM 38.0300 -85.5550 94° East 295 339 7,400 2,400 Climbing FlightAware
05:07AM 38.0250 -85.4800 95° East 308 354 9,100 2,100 Climbing FlightAware
05:07AM 38.0330 -85.4180 81° East 309 356 10,200 1,800 Climbing FlightAware
05:08AM 38.0590 -85.3500 64° Northeast 335 386 11,400 1,380 Climbing FlightAware
05:09AM 38.0900 -85.2660 65° Northeast 375 432 12,200 1,320 Climbing FlightAware
05:09AM 38.1140 -85.1990 66° East 392 451 13,100 2,100 Climbing FlightAware
05:10AM 38.1410 -85.1230 66° East 396 456 14,600 2,160 Climbing FlightAware
05:10AM 38.1750 -85.0300 65° Northeast 408 470 16,000 1,920 Climbing FlightAware
05:11AM 38.2070 -84.9420 65° Northeast 417 480 17,300 1,800 Climbing FlightAware
05:12AM 38.2430 -84.8430 65° Northeast 430 495 18,600 1,680 Climbing FlightAware
05:12AM 38.2690 -84.7694 66° East 436 502 19,500 1,860 Climbing FlightAware ADS-B (KCVG)
05:13AM 38.3017 -84.6781 65° Northeast 439 505 20,900 1,740 Climbing FlightAware ADS-B (KCVG)
05:14AM 38.3617 -84.5099 65° Northeast 448 516 22,800 1,560 Climbing FlightAware ADS-B (KCVG)
05:15AM 38.4010 -84.3990 66° East 452 520 24,000 1,380 Climbing FlightAware
05:16AM 38.4380 -84.2930 66° East 459 528 24,900 1,200 Climbing FlightAware
05:16AM 38.4770 -84.1840 65° Northeast 467 537 25,800 1,260 Climbing FlightAware
05:17AM 38.5100 -84.0910 66° East 471 542 26,600 1,320 Climbing FlightAware
05:18AM 38.5520 -83.9690 66° East 473 544 27,700 1,680 Climbing FlightAware
05:18AM 38.5880 -83.8680 65° Northeast 463 533 29,100 1,860 Climbing FlightAware
05:19AM 38.6220 -83.7690 66° East 456 525 30,200 1,260 Climbing FlightAware
05:20AM 38.6600 -83.6590 66° East 460 529 30,900 1,020 Climbing FlightAware
05:21AM 38.7060 -83.5270 66° East 459 528 31,900 1,020 Climbing FlightAware
05:21AM 38.7440 -83.4160 66° East 461 531 32,600 660 Climbing FlightAware
05:22AM 38.7680 -83.3460 66° East 467 537 32,700 240 Climbing FlightAware
05:23AM 38.8260 -83.1750 66° East 472 543 33,000 120 Climbing FlightAware
05:24AM 38.8550 -83.0880 67° East 470 541 33,000  Level FlightAware
05:24AM 38.8880 -82.9920 66° East 468 539 33,000  Level FlightAware
05:25AM 38.9150 -82.9120 67° East 469 540 33,000  Level FlightAware
05:26AM 38.9750 -82.7310 67° East 467 537 33,000  Level FlightAware
05:27AM 39.0110 -82.6250 66° East 469 540 33,000  Level FlightAware
05:28AM 39.0570 -82.4850 67° East 471 542 33,000  Level FlightAware
05:28AM 39.0950 -82.3720 67° East 471 542 33,000  Level FlightAware
05:29AM 39.1290 -82.2680 67° East 473 544 33,000  Level FlightAware
05:30AM 39.1630 -82.1660 67° East 474 545 33,000  Level FlightAware
05:30AM 39.1990 -82.0540 67° East 473 544 33,000  Level FlightAware
05:31AM 39.2370 -81.9400 67° East 475 547 33,000  Level FlightAware
05:32AM 39.2680 -81.8410 68° East 475 547 33,000  Level FlightAware
05:33AM 39.3220 -81.6770 67° East 476 548 33,000  Level FlightAware
05:33AM 39.3470 -81.5970 68° East 476 548 33,000  Level FlightAware
05:34AM 39.4020 -81.4260 67° East 478 550 33,000  Level FlightAware
05:35AM 39.4350 -81.3220 68° East 476 548 33,000  Level FlightAware
05:36AM 39.4670 -81.2230 67° East 476 548 33,000  Level FlightAware
05:36AM 39.4980 -81.1230 68° East 476 548 33,000  Level FlightAware
05:37AM 39.5280 -81.0290 67° East 475 547 33,000  Level FlightAware
05:38AM 39.5620 -80.9220 68° East 476 548 33,000  Level FlightAware
05:38AM 39.5920 -80.8260 68° East 476 548 33,000  Level FlightAware
05:39AM 39.6170 -80.7440 68° East 476 548 33,000  Level FlightAware
05:39AM 39.6450 -80.6530 68° East 476 548 33,000  Level FlightAware
05:40AM 39.6790 -80.5450 68° East 476 548 33,000  Level FlightAware
05:41AM 39.7250 -80.3960 68° East 474 545 33,000  Level FlightAware
05:42AM 39.7570 -80.2900 69° East 473 544 33,000  Level FlightAware
05:42AM 39.7890 -80.1870 68° East 472 543 33,000  Level FlightAware
05:43AM 39.8380 -80.0250 68° East 472 543 33,000  Level FlightAware
05:44AM 39.8600 -79.9510 69° East 471 542 33,000  Level FlightAware
05:44AM 39.8920 -79.8470 68° East 472 543 33,000  Level FlightAware
05:45AM 39.9210 -79.7510 68° East 473 544 33,000  Level FlightAware
05:46AM 39.9500 -79.6540 69° East 473 544 33,000  Level FlightAware
05:46AM 39.9800 -79.5540 69° East 472 543 33,000  Level FlightAware
05:47AM 40.0120 -79.4460 69° East 472 543 33,000  Level FlightAware
05:47AM 40.0410 -79.3470 69° East 472 543 33,000  Level FlightAware
05:48AM 40.0730 -79.2390 69° East 473 544 33,000  Level FlightAware
05:49AM 40.1040 -79.1360 68° East 474 545 33,000  Level FlightAware
05:49AM 40.1185 -79.0851 70° East 475 547 33,000  Level FlightAware ADS-B (KWWD)
05:50AM 40.1550 -78.9600 69° East 474 545 33,000  Level FlightAware
05:50AM 40.1830 -78.8650 69° East 476 548 33,000  Level FlightAware
05:51AM 40.2120 -78.7650 69° East 476 548 33,000  Level FlightAware
05:52AM 40.2370 -78.6780 69° East 476 548 33,000  Level FlightAware
05:52AM 40.2680 -78.5680 70° East 476 548 33,000  Level FlightAware
05:53AM 40.3030 -78.4460 69° East 474 545 33,000  Level FlightAware
05:54AM 40.3330 -78.3400 70° East 471 542 33,000  Level FlightAware
05:55AM 40.3774 -78.1849 69° East 465 535 33,000  Level FlightAware ADS-B (KWWD)
05:55AM 40.4065 -78.0815 70° East 457 526 33,000  Level FlightAware ADS-B (KWWD)
05:56AM 40.4293 -78.0009 70° East 457 526 33,000  Level FlightAware ADS-B (KWWD)
05:56AM 40.4513 -77.9228 70° East 453 521 33,000  Level FlightAware ADS-B (KWWD)
05:57AM 40.4734 -77.8441 70° East 451 519 33,000  Level FlightAware ADS-B (KWWD)
05:57AM 40.4945 -77.7678 70° East 450 518 33,000  Level FlightAware ADS-B (KWWD)
05:58AM 40.5161 -77.6899 70° East 451 519 33,000  Level FlightAware ADS-B (KWWD)
05:59AM 40.5469 -77.5790 70° East 453 521 33,000  Level FlightAware ADS-B (KWWD)
05:59AM 40.5820 -77.4510 70° East 458 527 33,000  Level FlightAware
06:00AM 40.6150 -77.3300 70° East 455 524 33,000  Level FlightAware
06:01AM 40.6664 -77.1432 70° East 452 520 33,000  Level FlightAware ADS-B (KWWD)
06:02AM 40.6946 -77.0391 70° East 457 526 33,000  Level FlightAware ADS-B (KWWD)
06:03AM 40.7232 -76.9329 70° East 461 531 33,000  Level FlightAware ADS-B (KWWD)
06:03AM 40.7357 -76.8860 71° East 464 534 33,000  Level FlightAware ADS-B (KAPG)
06:03AM 40.7357 -76.8860 71° East 465 535 33,000  Level FlightAware ADS-B (KAPG)
06:03AM 40.7503 -76.8310 71° East 465 535 33,000  Level FlightAware ADS-B (KAPG)
06:04AM 40.7800 -76.7196 71° East 461 531 33,000  Level FlightAware ADS-B (KWWD)
06:05AM 40.8015 -76.6396 70° East 462 532 33,000  Level FlightAware ADS-B (KWWD)
06:05AM 40.8226 -76.5601 71° East 460 529 33,000  Level FlightAware ADS-B (KWWD)
06:06AM 40.8507 -76.4540 71° East 461 531 33,000  Level FlightAware ADS-B (KWWD)
06:06AM 40.8785 -76.3483 71° East 458 527 33,000  Level FlightAware ADS-B (KWWD)
06:07AM 40.9141 -76.2125 71° East 455 524 33,000  Level FlightAware ADS-B (KWWD)
06:08AM 40.9381 -76.1207 71° East 454 522 33,000  Level FlightAware ADS-B (KWWD)
06:09AM 40.9702 -75.9975 71° East 458 527 33,000  Level FlightAware ADS-B (KWWD)
06:09AM 40.9931 -75.9085 71° East 459 528 33,000  Level FlightAware ADS-B (KWWD)
06:10AM 41.0310 -75.7619 71° East 467 537 33,000 60 Level FlightAware ADS-B (KWWD)
06:11AM 41.0582 -75.6549 71° East 475 547 33,100  Climbing FlightAware ADS-B (KWWD)
06:11AM 41.0798 -75.5701 71° East 476 548 33,000 -120 Descending FlightAware ADS-B (KWWD)
06:12AM 41.1085 -75.4572 71° East 478 550 33,000  Level FlightAware ADS-B (KWWD)
06:13AM 41.1338 -75.3573 71° East 476 548 33,000  Level FlightAware ADS-B (KWWD)
06:13AM 41.1556 -75.2708 71° East 476 548 33,000  Level FlightAware ADS-B (KWWD)
06:14AM 41.1777 -75.1831 71° East 477 549 33,000  Level FlightAware ADS-B (KWWD)
06:14AM 41.1982 -75.1005 72° East 480 552 33,000  Level FlightAware ADS-B (KWWD)
06:15AM 41.2255 -74.9904 72° East 482 555 33,000  Level FlightAware ADS-B (KWWD)
06:15AM 41.2477 -74.9013 72° East 482 555 33,000  Level FlightAware ADS-B (KWWD)
06:16AM 41.2690 -74.8145 72° East 487 560 33,000 60 Level FlightAware ADS-B (KWWD)
06:16AM 41.2973 -74.6987 72° East 486 559 33,100 60 Climbing FlightAware ADS-B (KWWD)
06:17AM 41.3244 -74.5891 72° East 488 562 33,100 -120 Level FlightAware ADS-B (KWWD)
06:17AM 41.3408 -74.5216 72° East 486 559 33,000 -120 Descending FlightAware ADS-B (KWWD)
06:18AM 41.3648 -74.4227 72° East 492 566 33,000  Level FlightAware ADS-B (KWWD)
06:19AM 41.3864 -74.3338 72° East 494 568 33,000  Level FlightAware ADS-B (KSNC)
06:19AM 41.3960 -74.2941 72° East 495 570 33,000 120 Level FlightAware ADS-B
06:19AM 41.4218 -74.1864 72° East 497 572 33,100  Climbing FlightAware ADS-B (KSNC)
06:20AM 41.4273 -74.1636 72° East 497 572 33,000 -240 Descending FlightAware ADS-B
06:20AM 41.4425 -74.1003 72° East 494 568 33,000  Level FlightAware ADS-B (KSNC)
06:20AM 41.4636 -74.0122 72° East 495 570 33,000  Level FlightAware ADS-B (KSNC)
06:21AM 41.4857 -73.9189 72° East 497 572 33,000  Level FlightAware ADS-B (KSNC)
06:21AM 41.5070 -73.8281 73° East 495 570 33,000  Level FlightAware ADS-B (KSNC)
06:22AM 41.5337 -73.7156 72° East 496 571 33,000  Level FlightAware ADS-B (KSNC)
06:23AM 41.5530 -73.6327 73° East 495 570 33,000 -120 Level FlightAware ADS-B (KSNC)
06:23AM 41.5811 -73.5132 73° East 496 571 32,900  Descending FlightAware ADS-B (KSNC)
06:24AM 41.6014 -73.4261 73° East 498 573 33,000 60 Climbing FlightAware ADS-B (KSNC)
06:24AM 41.6225 -73.3342 73° East 501 577 33,000  Level FlightAware ADS-B (KSNC)
06:25AM 41.6502 -73.2141 73° East 505 581 33,000  Level FlightAware ADS-B (KSNC)
06:25AM 41.6713 -73.1220 73° East 508 585 33,000  Level FlightAware ADS-B (KSNC)
06:26AM 41.6958 -73.0143 73° East 510 587 33,000  Level FlightAware ADS-B (KSNC)
06:27AM 41.7185 -72.9149 73° East 509 586 33,000  Level FlightAware ADS-B (KSNC)
06:27AM 41.7397 -72.8213 73° East 508 585 33,000  Level FlightAware ADS-B (KSNC)
06:28AM 41.7594 -72.7332 73° East 507 583 33,000  Level FlightAware ADS-B (KSNC)
06:28AM 41.7806 -72.6382 73° East 506 582 33,000  Level FlightAware ADS-B (KSNC)
06:29AM 41.8010 -72.5510 73° East 505 581 33,000  Level FlightAware
06:29AM 41.8465 -72.4189 65° Northeast 504 580 33,000  Level FlightAware ADS-B (KSNC)
06:30AM 41.8847 -72.3089 65° Northeast 504 580 33,000  Level FlightAware ADS-B (KSNC)
06:31AM 41.9144 -72.2239 65° Northeast 505 581 33,000  Level FlightAware ADS-B (KSNC)
06:31AM 41.9525 -72.1135 65° Northeast 507 583 33,000  Level FlightAware ADS-B
06:32AM 41.9882 -72.0099 65° Northeast 508 585 33,000  Level FlightAware ADS-B
06:32AM 42.0177 -71.9244 65° Northeast 511 588 33,000  Level FlightAware ADS-B (KSNC)
06:33AM 42.0525 -71.8232 65° Northeast 514 592 33,000 120 Level FlightAware ADS-B
06:33AM 42.0604 -71.7999 66° East 514 592 33,100  Climbing FlightAware ADS-B (KOWD)
06:34AM 42.0917 -71.7080 65° Northeast 516 594 33,000 -120 Descending FlightAware ADS-B
06:34AM 42.1136 -71.6438 65° Northeast 517 595 33,000  Level FlightAware ADS-B (KSNC)
06:34AM 42.1361 -71.5779 65° Northeast 515 593 33,000  Level FlightAware ADS-B
06:35AM 42.1557 -71.5201 65° Northeast 516 594 33,000  Level FlightAware ADS-B
06:35AM 42.1865 -71.4296 65° Northeast 515 593 33,000  Level FlightAware ADS-B
06:36AM 42.2163 -71.3409 66° East 517 595 33,000  Level FlightAware ADS-B (KBOS)
06:36AM 42.2476 -71.2477 66° East 516 594 33,000  Level FlightAware ADS-B
06:37AM 42.2771 -71.1594 66° East 516 594 33,000  Level FlightAware ADS-B
06:37AM 42.3134 -71.0508 66° East 516 594 33,000  Level FlightAware ADS-B (KBOS)
06:38AM 42.3432 -70.9618 66° East 516 594 33,000 -120 Level FlightAware ADS-B (KBOS)
06:38AM 42.3731 -70.8713 66° East 516 594 32,900 -120 Descending FlightAware ADS-B (KBOS)
06:39AM 42.3935 -70.8094 66° East 516 594 32,900 60 Level FlightAware ADS-B (KOWD)
06:39AM 42.4321 -70.6927 66° East 518 596 33,000 60 Climbing FlightAware ADS-B (KBOS)
06:40AM 42.4620 -70.6014 66° East 519 597 33,000  Level FlightAware ADS-B
06:40AM 42.4580 -70.6134 246° West 520 598 33,000  Level FlightAware ADS-B (KOWD)
06:41AM 42.5275 -70.4005 66° East 525 604 33,000 60 Level FlightAware ADS-B
06:42AM 42.5592 -70.3030 66° East 527 606 33,100  Climbing FlightAware ADS-B (KBOS)
06:42AM 42.5978 -70.1832 66° East 530 610 33,000 -120 Descending FlightAware ADS-B
06:43AM 42.6288 -70.0870 66° East 531 611 33,000  Level FlightAware ADS-B (KBOS)
06:43AM 42.6633 -69.9795 66° East 530 610 33,000  Level FlightAware ADS-B (KBOS)
06:44AM 42.6924 -69.8886 66° East 529 609 33,000  Level FlightAware ADS-B (KBOS)
06:44AM 42.7245 -69.7877 67° East 525 604 33,000  Level FlightAware ADS-B
06:45AM 42.7555 -69.6904 67° East 523 602 33,000 -120 Level FlightAware ADS-B (KBOS)
06:45AM 42.7808 -69.6104 67° East 518 596 32,900  Descending FlightAware ADS-B
06:46AM 42.8120 -69.5115 67° East 520 598 33,000 120 Climbing FlightAware ADS-B (KBOS)
06:46AM 42.8208 -69.4834 67° East 516 594 33,000  Level FlightAware ADS-B
06:46AM 42.8397 -69.4233 67° East 517 595 33,000  Level FlightAware ADS-B
06:47AM 42.8658 -69.3398 67° East 523 602 33,000  Level FlightAware ADS-B (CYQI)
06:47AM 42.8811 -69.2903 67° East 523 602 33,000  Level FlightAware ADS-B (CYQI)
06:47AM 42.8914 -69.2570 67° East 525 604 33,000  Level FlightAware ADS-B (CYQI)
06:48AM 42.9247 -69.1502 67° East 524 603 33,000  Level FlightAware ADS-B
06:48AM 42.9529 -69.0590 67° East 525 604 33,000  Level FlightAware ADS-B
06:49AM 42.9808 -68.9688 67° East 526 605 33,000  Level FlightAware ADS-B
06:49AM 42.9926 -68.9301 67° East 530 610 33,000  Level FlightAware ADS-B (CYQI)
06:50AM 43.0240 -68.8279 67° East 532 612 33,000  Level FlightAware ADS-B (KBOS)
06:50AM 43.0279 -68.8152 67° East 529 609 33,000  Level FlightAware ADS-B
06:50AM 43.0580 -68.7170 67° East 533 613 33,000  Level FlightAware ADS-B (CYQI)
06:50AM 43.0611 -68.7067 67° East 532 612 33,000  Level FlightAware ADS-B (CYQI)
06:50AM 43.0696 -68.6791 67° East 529 609 33,000  Level FlightAware ADS-B
06:51AM 43.0918 -68.6059 67° East 528 608 33,000  Level FlightAware ADS-B
06:51AM 43.1231 -68.5030 67° East 527 606 33,000  Level FlightAware ADS-B
06:52AM 43.1535 -68.4025 67° East 530 610 33,000 -120 Level FlightAware ADS-B (KBOS)
06:52AM 43.1657 -68.3622 67° East 531 611 32,900  Descending FlightAware ADS-B (CYQI)
06:53AM 43.2083 -68.2195 68° East 530 610 33,000 60 Climbing FlightAware ADS-B (CYQI)
06:53AM 43.2378 -68.1212 68° East 531 611 33,000  Level FlightAware ADS-B (CYQI)
06:54AM 43.2644 -68.0319 68° East 532 612 33,000  Level FlightAware ADS-B (CYQI)
06:55AM 43.3026 -67.9025 68° East 536 617 33,000  Level FlightAware ADS-B (CYQI)
06:55AM 43.3345 -67.7944 68° East 538 619 33,000  Level FlightAware ADS-B (CYQI)
06:56AM 43.3589 -67.7114 68° East 541 623 33,000  Level FlightAware ADS-B (CYQI)
06:56AM 43.3952 -67.5871 68° East 541 623 33,000  Level FlightAware ADS-B (CYQI)
06:57AM 43.4228 -67.4921 68° East 542 624 33,000  Level FlightAware ADS-B (CYQI)
06:57AM 43.4519 -67.3919 68° East 541 623 33,000  Level FlightAware ADS-B (CYQI)
06:58AM 43.5002 -67.2252 68° East 541 623 33,000  Level FlightAware ADS-B (CYQI)
06:59AM 43.5283 -67.1275 68° East 539 620 33,000  Level FlightAware ADS-B (CYQI)
06:59AM 43.5559 -67.0310 68° East 538 619 33,000  Level FlightAware ADS-B (CYQI)
07:00AM 43.5980 -66.9172 63° Northeast 540 621 33,000  Level FlightAware ADS-B (CYQI)
07:00AM 43.6387 -66.8155 61° Northeast 541 623 33,000  Level FlightAware ADS-B (CYQI)
07:01AM 43.6712 -66.7338 61° Northeast 542 624 33,000  Level FlightAware ADS-B (CYQI)
07:01AM 43.7113 -66.6329 61° Northeast 544 626 33,000  Level FlightAware ADS-B (CYQI)
07:02AM 43.7451 -66.5544 59° Northeast 548 631 33,000  Level FlightAware ADS-B (CYQI)
07:03AM 43.8306 -66.3855 55° Northeast 551 634 33,000  Level FlightAware ADS-B (CYQI)
07:03AM 43.8808 -66.2843 55° Northeast 554 638 33,000  Level FlightAware ADS-B (CYQI)
07:04AM 43.9403 -66.1652 55° Northeast 555 639 33,000  Level FlightAware ADS-B (CYQI)
07:05AM 43.9842 -66.0776 55° Northeast 553 636 33,000  Level FlightAware ADS-B (CYQI)
07:05AM 44.0585 -65.9290 55° Northeast 551 634 33,000  Level FlightAware ADS-B (CYQI)
07:06AM 44.1013 -65.8431 55° Northeast 550 633 33,000 -120 Level FlightAware ADS-B (CYQI)
07:06AM 44.1454 -65.7541 55° Northeast 549 632 32,900  Descending FlightAware ADS-B (CYQI)
07:07AM 44.1873 -65.6693 55° Northeast 548 631 33,000 60 Climbing FlightAware ADS-B (CYQI)
07:07AM 44.2326 -65.5775 55° Northeast 548 631 33,000  Level FlightAware ADS-B (CYQI)
07:08AM 44.2762 -65.4887 56° Northeast 548 631 33,000  Level FlightAware ADS-B (CYQI)
07:08AM 44.3207 -65.3979 56° Northeast 551 634 33,000  Level FlightAware ADS-B (CYQI)
07:09AM 44.3713 -65.2944 56° Northeast 554 638 33,000  Level FlightAware ADS-B (CYQI)
07:10AM 44.4288 -65.1760 56° Northeast 557 641 33,000  Level FlightAware ADS-B (CYQI)
07:10AM 44.4646 -65.1024 56° Northeast 559 643 33,000  Level FlightAware ADS-B (CYQI)
07:11AM 44.5202 -64.9875 56° Northeast 560 644 33,000  Level FlightAware ADS-B (CYQI)
07:11AM 44.5659 -64.8923 56° Northeast 559 643 33,000  Level FlightAware ADS-B (CYQI)
07:12AM 44.6088 -64.8027 56° Northeast 558 642 33,000  Level FlightAware ADS-B (CYQI)
07:12AM 44.6503 -64.7162 56° Northeast 556 640 33,000  Level FlightAware ADS-B (CYQI)
07:13AM 44.6913 -64.6309 56° Northeast 556 640 33,000  Level FlightAware ADS-B (CYQI)
07:13AM 44.7384 -64.5316 56° Northeast 555 639 33,000  Level FlightAware ADS-B (CYQI)
07:14AM 44.7807 -64.4423 56° Northeast 554 638 33,000  Level FlightAware ADS-B (CYQI)
07:15AM 44.8553 -64.2847 56° Northeast 554 638 33,000  Level FlightAware ADS-B (CYQI)
07:15AM 44.9095 -64.1690 57° Northeast 556 640 33,000  Level FlightAware ADS-B (CYQI)
07:16AM 44.9554 -64.0708 57° Northeast 557 641 33,000  Level FlightAware ADS-B (CYQI)
07:16AM 44.9991 -63.9770 57° Northeast 559 643 33,000  Level FlightAware ADS-B (CYQI)
07:17AM 45.0472 -63.8736 57° Northeast 561 646 33,000  Level FlightAware ADS-B (CYQI)
07:17AM 45.0905 -63.7796 57° Northeast 562 647 33,000  Level FlightAware ADS-B (CYQI)
07:18AM 45.1398 -63.6734 57° Northeast 564 649 33,000  Level FlightAware ADS-B (CYQI)
07:19AM 45.2074 -63.5262 57° Northeast 566 651 33,000  Level FlightAware ADS-B (CYQI)
07:19AM 45.2636 -63.4034 57° Northeast 568 654 33,000  Level FlightAware ADS-B (CYQI)
07:20AM 45.3480 -63.2170 57° Northeast 568 654 33,000  Level FlightAware
07:21AM 45.3950 -63.1130 57° Northeast 568 654 33,000  Level FlightAware
07:22AM 45.4490 -62.9930 57° Northeast 567 652 33,000  Level FlightAware
07:22AM 45.5070 -62.8650 57° Northeast 566 651 33,000  Level FlightAware
07:23AM 45.5610 -62.7430 58° Northeast 565 650 33,000  Level FlightAware
07:24AM 45.6190 -62.6140 57° Northeast 565 650 33,000  Level FlightAware
07:24AM 45.6650 -62.5110 57° Northeast 565 650 33,000  Level FlightAware
07:25AM 45.7240 -62.3760 58° Northeast 565 650 33,000  Level FlightAware
07:25AM 45.7630 -62.2870 58° Northeast 567 652 33,000  Level FlightAware
07:26AM 45.8240 -62.1480 58° Northeast 569 655 33,000  Level FlightAware
07:27AM 45.8790 -62.0230 58° Northeast 571 657 33,000  Level FlightAware
07:27AM 45.9310 -61.9020 58° Northeast 574 661 33,000  Level FlightAware
07:28AM 45.9790 -61.7920 58° Northeast 576 663 33,000 60 Level FlightAware
07:29AM 46.0280 -61.6770 58° Northeast 578 665 33,100  Climbing FlightAware
07:29AM 46.0790 -61.5580 58° Northeast 580 667 33,000 -120 Descending FlightAware
07:30AM 46.1430 -61.4080 58° Northeast 580 667 33,000 60 Level FlightAware
07:31AM 46.1990 -61.2770 58° Northeast 578 665 33,100 660 Climbing FlightAware
07:31AM 46.2550 -61.1440 59° Northeast 573 659 33,900 1,020 Climbing FlightAware
07:32AM 46.2990 -61.0370 59° Northeast 575 662 34,400 840 Climbing FlightAware
07:32AM 46.3530 -60.9090 59° Northeast 576 663 34,900 480 Climbing FlightAware
07:33AM 46.3980 -60.8010 59° Northeast 573 659 35,000 60 Climbing FlightAware
07:33AM 46.4360 -60.7110 58° Northeast 572 658 35,000  Level FlightAware
07:34AM 46.4950 -60.5670 59° Northeast 578 665 35,000  Level FlightAware
07:35AM 46.5400 -60.4570 59° Northeast 581 669 35,000  Level FlightAware
07:35AM 46.5970 -60.3170 59° Northeast 581 669 35,000  Level FlightAware
07:36AM 46.6300 -60.2370 59° Northeast 581 669 35,000  Level FlightAware
07:36AM 46.6840 -60.1040 59° Northeast 579 666 35,000  Level FlightAware
07:38AM 46.7870 -59.8490 59° Northeast 578 665 35,000  Level FlightAware
07:39AM 46.8520 -59.6880 59° Northeast 577 664 35,000  Level FlightAware
07:39AM 46.9010 -59.5650 60° Northeast 577 664 35,000  Level FlightAware
07:40AM 46.9350 -59.4780 60° Northeast 577 664 35,000  Level FlightAware
07:40AM 46.9850 -59.3520 60° Northeast 577 664 35,000  Level FlightAware
07:41AM 47.0440 -59.2020 60° Northeast 577 664 35,000  Level FlightAware
07:41AM 47.0810 -59.1080 60° Northeast 576 663 35,000  Level FlightAware
07:42AM 47.1210 -59.0040 60° Northeast 579 666 35,000  Level FlightAware
07:42AM 47.1680 -58.8830 60° Northeast 580 667 35,000  Level FlightAware
07:43AM 47.2290 -58.7250 60° Northeast 581 669 35,000 60 Level FlightAware
07:44AM 47.2820 -58.5890 60° Northeast 582 670 35,100  Climbing FlightAware
07:44AM 47.3190 -58.4920 61° Northeast 583 671 35,000 -120 Descending FlightAware
07:45AM 47.3800 -58.3330 60° Northeast 583 671 35,000  Level FlightAware
07:46AM 47.4280 -58.2050 61° Northeast 583 671 35,000  Level FlightAware
07:46AM 47.4680 -58.0980 61° Northeast 584 672 35,000 -120 Level FlightAware
07:47AM 47.5260 -57.9450 61° Northeast 583 671 34,900  Descending FlightAware
07:47AM 47.5630 -57.8450 61° Northeast 583 671 35,000 60 Climbing FlightAware
07:48AM 47.6130 -57.7120 61° Northeast 583 671 35,000  Level FlightAware
07:49AM 47.6670 -57.5640 62° Northeast 583 671 35,000  Level FlightAware
07:49AM 47.7200 -57.4210 61° Northeast 584 672 35,000  Level FlightAware
07:50AM 47.7470 -57.3470 61° Northeast 583 671 35,000  Level FlightAware
07:51AM 47.8060 -57.1780 62° Northeast 582 670 35,000 60 Level FlightAware
07:51AM 47.8450 -57.0680 62° Northeast 583 671 35,100  Climbing FlightAware
07:52AM 47.8880 -56.9440 63° Northeast 582 670 35,000 -120 Descending FlightAware
07:52AM 47.9380 -56.8010 62° Northeast 582 670 35,000  Level FlightAware
07:53AM 48.0110 -56.5880 63° Northeast 576 663 35,000  Level FlightAware
07:54AM 48.0880 -56.3640 63° Northeast 570 656 35,000  Level FlightAware
07:55AM 48.1430 -56.2030 63° Northeast 567 652 35,000  Level FlightAware
07:56AM 48.2020 -56.0270 63° Northeast 567 652 35,000  Level FlightAware
07:57AM 48.2490 -55.8850 64° Northeast 566 651 35,000  Level FlightAware
07:57AM 48.2840 -55.7800 63° Northeast 566 651 35,000  Level FlightAware
07:58AM 48.3290 -55.6450 63° Northeast 566 651 35,000  Level FlightAware
07:59AM 48.3830 -55.4830 63° Northeast 568 654 35,000  Level FlightAware
07:59AM 48.4290 -55.3420 64° Northeast 570 656 35,000  Level FlightAware
08:00AM 48.4820 -55.1790 64° Northeast 573 659 35,000  Level FlightAware
08:01AM 48.5580 -54.9460 64° Northeast 576 663 35,000  Level FlightAware
08:02AM 48.5980 -54.8190 64° Northeast 576 663 35,000  Level FlightAware
08:02AM 48.6330 -54.7110 64° Northeast 576 663 35,000  Level FlightAware
08:03AM 48.6790 -54.5660 64° Northeast 575 662 35,000  Level FlightAware
08:04AM 48.7190 -54.4410 64° Northeast 576 663 35,000  Level FlightAware
08:04AM 48.7820 -54.2400 64° Northeast 574 661 35,000  Level FlightAware
08:05AM 48.8220 -54.1120 65° Northeast 575 662 35,000  Level FlightAware
08:06AM 48.8670 -53.9670 65° Northeast 575 662 35,000  Level FlightAware
08:06AM 48.9060 -53.8390 65° Northeast 578 665 35,000  Level FlightAware
08:07AM 48.9340 -53.7490 65° Northeast 579 666 35,000  Level FlightAware
08:07AM 48.9680 -53.6380 65° Northeast 580 667 35,000  Level FlightAware
08:08AM 49.0190 -53.4690 65° Northeast 583 671 35,000  Level FlightAware
08:09AM 49.0650 -53.3200 65° Northeast 583 671 35,000  Level FlightAware
08:09AM 49.1150 -53.1540 65° Northeast 580 667 35,000  Level FlightAware
08:10AM 49.1650 -52.9870 65° Northeast 577 664 35,000  Level FlightAware
08:11AM 49.1910 -52.8990 66° East 577 664 35,000  Level FlightAware
08:11AM 49.2300 -52.7660 66° East 576 663 35,000  Level FlightAware
08:12AM 49.2770 -52.6070 66° East 575 662 35,000  Level FlightAware
08:12AM 49.3020 -52.5200 66° East 575 662 35,000  Level FlightAware
08:13AM 49.3420 -52.3820 66° East 576 663 35,000  Level FlightAware
08:13AM 49.3680 -52.2920 66° East 577 664 35,000  Level FlightAware
08:14AM 49.4150 -52.1300 66° East 582 670 35,000  Level FlightAware
08:15AM 49.4650 -51.9550 66° East 585 673 35,000  Level FlightAware
08:15AM 49.5070 -51.8080 66° East 586 674 35,000  Level FlightAware
08:16AM 49.5550 -51.6370 67° East 585 673 35,000  Level FlightAware
08:17AM 49.6080 -51.4470 67° East 582 670 35,000  Level FlightAware
08:17AM 49.6430 -51.3220 67° East 581 669 35,000  Level FlightAware
08:18AM 49.6780 -51.1970 67° East 580 667 35,000  Level FlightAware
08:19AM 49.7140 -51.0660 67° East 580 667 35,000  Level FlightAware
08:19AM 49.7520 -50.9340 66° East 580 667 35,000  Level FlightAware
08:20AM 49.7840 -50.8210 66° East 580 667 35,000  Level FlightAware
08:21AM 49.8180 -50.7040 66° East 580 667 35,000  Level FlightAware
08:21AM 49.8530 -50.5820 66° East 580 667 35,000  Level FlightAware
08:22AM 49.8860 -50.4650 66° East 580 667 35,000  Level FlightAware
08:22AM 49.9200 -50.3490 65° Northeast 580 667 35,000  Level FlightAware
08:23AM 49.9650 -50.1900 66° East 580 667 35,000  Level FlightAware
08:24AM 49.9980 -50.0730 66° East 580 667 35,000  Level FlightAware
08:24AM 50.0320 -49.9570 65° Northeast 580 667 35,000  Level FlightAware
08:25AM 50.0650 -49.8400 66° East 580 667 35,000  Level FlightAware
08:26AM 50.1100 -49.6840 66° East 580 667 35,000  Level FlightAware
08:26AM 50.1440 -49.5640 66° East 580 667 35,000  Level FlightAware
08:27AM 50.1770 -49.4470 66° East 580 667 35,000  Level FlightAware
08:28AM 50.2220 -49.2900 66° East 580 667 35,000  Level FlightAware
08:28AM 50.2440 -49.2120 66° East 580 667 35,000  Level FlightAware
08:29AM 50.2660 -49.1340 66° East 580 667 35,000  Level FlightAware
08:30AM 50.5833 -48.6500 66° East 580 667 35,000  Level Gander Center
08:31AM 50.6833 -48.4333 54° Northeast 570 656 35,000  Level Gander Center
08:33AM 50.8435 -48.1079 52° Northeast  Level FlightAware Approximate
08:40AM 51.4438 -46.8038 55° Northeast  Level FlightAware Approximate
08:41AM 51.5252 -46.6113 56° Northeast  Level FlightAware Approximate
08:42AM 51.6063 -46.4181 56° Northeast  Level FlightAware Approximate
08:43AM 51.6871 -46.2242 56° Northeast  Level FlightAware Approximate
08:44AM 51.7675 -46.0297 56° Northeast  Level FlightAware Approximate
08:45AM 51.8477 -45.8344 56° Northeast  Level FlightAware Approximate
08:46AM 51.9275 -45.6385 57° Northeast  Level FlightAware Approximate
08:47AM 52.0070 -45.4418 57° Northeast  Level FlightAware Approximate
08:48AM 52.0861 -45.2444 57° Northeast  Level FlightAware Approximate
08:49AM 52.1650 -45.0464 57° Northeast  Level FlightAware Approximate
08:50AM 52.2440 -44.8482 57° Northeast  Level FlightAware Approximate
08:51AM 52.3228 -44.6494 57° Northeast  Level FlightAware Approximate
08:52AM 52.4013 -44.4500 57° Northeast  Level FlightAware Approximate
08:53AM 52.4795 -44.2498 57° Northeast  Level FlightAware Approximate
08:54AM 52.5573 -44.0489 57° Northeast  Level FlightAware Approximate
08:55AM 52.6348 -43.8474 58° Northeast  Level FlightAware Approximate
08:56AM 52.7119 -43.6451 58° Northeast  Level FlightAware Approximate
08:57AM 52.7887 -43.4420 58° Northeast  Level FlightAware Approximate
08:58AM 52.8651 -43.2383 58° Northeast  Level FlightAware Approximate
08:59AM 52.9412 -43.0339 58° Northeast  Level FlightAware Approximate
09:00AM 53.0170 -42.8287 58° Northeast  Level FlightAware Approximate
09:01AM 53.0924 -42.6228 59° Northeast  Level FlightAware Approximate
09:02AM 53.1674 -42.4162 59° Northeast  Level FlightAware Approximate
09:03AM 53.2421 -42.2089 59° Northeast  Level FlightAware Approximate
09:04AM 53.3164 -42.0008 59° Northeast  Level FlightAware Approximate
09:05AM 53.3903 -41.7920 59° Northeast  Level FlightAware Approximate
09:06AM 53.4639 -41.5825 59° Northeast  Level FlightAware Approximate
09:07AM 53.5371 -41.3723 60° Northeast  Level FlightAware Approximate
09:08AM 53.6100 -41.1613 60° Northeast  Level FlightAware Approximate
09:09AM 53.6824 -40.9496 60° Northeast  Level FlightAware Approximate
09:10AM 53.7545 -40.7372 60° Northeast  Level FlightAware Approximate
09:11AM 53.8263 -40.5241 60° Northeast  Level FlightAware Approximate
09:12AM 53.8976 -40.3102 60° Northeast  Level FlightAware Approximate
09:13AM 53.9686 -40.0956 61° Northeast  Level FlightAware Approximate
09:14AM 54.0190 -39.8669 76° East  Level FlightAware Approximate
09:15AM 54.0528 -39.6270 76° East  Level FlightAware Approximate
09:16AM 54.0862 -39.3867 77° East  Level FlightAware Approximate
09:17AM 54.1190 -39.1460 77° East  Level FlightAware Approximate
09:18AM 54.1514 -38.9049 77° East  Level FlightAware Approximate
09:19AM 54.1833 -38.6634 77° East  Level FlightAware Approximate
09:20AM 54.2147 -38.4216 77° East  Level FlightAware Approximate
09:21AM 54.2456 -38.1794 78° East  Level FlightAware Approximate
09:22AM 54.2761 -37.9369 78° East  Level FlightAware Approximate
09:23AM 54.3060 -37.6940 78° East  Level FlightAware Approximate
09:24AM 54.3355 -37.4507 78° East  Level FlightAware Approximate
09:25AM 54.3645 -37.2071 78° East  Level FlightAware Approximate
09:26AM 54.3930 -36.9632 79° East  Level FlightAware Approximate
09:27AM 54.4210 -36.7189 79° East  Level FlightAware Approximate
09:28AM 54.4484 -36.4743 79° East  Level FlightAware Approximate
09:29AM 54.4754 -36.2293 79° East  Level FlightAware Approximate
09:30AM 54.5020 -35.9841 79° East  Level FlightAware Approximate
09:31AM 54.5280 -35.7385 80° East  Level FlightAware Approximate
09:32AM 54.5535 -35.4926 80° East  Level FlightAware Approximate
09:33AM 54.5785 -35.2464 80° East  Level FlightAware Approximate
09:34AM 54.6030 -34.9999 80° East  Level FlightAware Approximate
09:35AM 54.6270 -34.7532 80° East  Level FlightAware Approximate
09:36AM 54.6505 -34.5061 81° East  Level FlightAware Approximate
09:37AM 54.6738 -34.2588 81° East  Level FlightAware Approximate
09:38AM 54.6970 -34.0114 81° East  Level FlightAware Approximate
09:39AM 54.7197 -33.7637 81° East  Level FlightAware Approximate
09:40AM 54.7419 -33.5157 81° East  Level FlightAware Approximate
09:41AM 54.7635 -33.2674 81° East  Level FlightAware Approximate
09:42AM 54.7847 -33.0189 81° East  Level FlightAware Approximate
09:43AM 54.8054 -32.7701 82° East  Level FlightAware Approximate
09:44AM 54.8255 -32.5211 82° East  Level FlightAware Approximate
09:45AM 54.8452 -32.2718 82° East  Level FlightAware Approximate
09:46AM 54.8643 -32.0223 82° East  Level FlightAware Approximate
09:47AM 54.8830 -31.7725 83° East  Level FlightAware Approximate
09:48AM 54.9011 -31.5225 83° East  Level FlightAware Approximate
09:49AM 54.9187 -31.2723 83° East  Level FlightAware Approximate
09:50AM 54.9357 -31.0219 83° East  Level FlightAware Approximate
09:51AM 54.9523 -30.7713 83° East  Level FlightAware Approximate
09:52AM 54.9684 -30.5205 84° East  Level FlightAware Approximate
09:53AM 54.9839 -30.2694 84° East  Level FlightAware Approximate
09:54AM 54.9989 -30.0182 84° East  Level FlightAware Approximate
09:55AM 54.9865 -29.7669 96° East  Level FlightAware Approximate
09:56AM 54.9714 -29.5158 96° East  Level FlightAware Approximate
09:57AM 54.9558 -29.2648 96° East  Level FlightAware Approximate
09:58AM 54.9398 -29.0141 96° East  Level FlightAware Approximate
09:59AM 54.9231 -28.7635 96° East  Level FlightAware Approximate
10:00AM 54.9060 -28.5132 97° East  Level FlightAware Approximate
10:01AM 54.8884 -28.2631 97° East  Level FlightAware Approximate
10:02AM 54.8702 -28.0132 97° East  Level FlightAware Approximate
10:03AM 54.8516 -27.7635 97° East  Level FlightAware Approximate
10:04AM 54.8324 -27.5141 98° East  Level FlightAware Approximate
10:05AM 54.8127 -27.2649 98° East  Level FlightAware Approximate
10:06AM 54.7925 -27.0159 98° East  Level FlightAware Approximate
10:07AM 54.7718 -26.7673 98° East  Level FlightAware Approximate
10:08AM 54.7506 -26.5188 98° East  Level FlightAware Approximate
10:09AM 54.7289 -26.2706 99° East  Level FlightAware Approximate
10:10AM 54.7066 -26.0227 99° East  Level FlightAware Approximate
10:11AM 54.6839 -25.7751 99° East  Level FlightAware Approximate
10:12AM 54.6607 -25.5278 99° East  Level FlightAware Approximate
10:13AM 54.6369 -25.2807 99° East  Level FlightAware Approximate
10:14AM 54.6127 -25.0339 100° East  Level FlightAware Approximate
10:15AM 54.5880 -24.7875 100° East  Level FlightAware Approximate
10:16AM 54.5627 -24.5413 100° East  Level FlightAware Approximate
10:17AM 54.5370 -24.2954 100° East  Level FlightAware Approximate
10:18AM 54.5107 -24.0499 100° East  Level FlightAware Approximate
10:19AM 54.4840 -23.8046 101° East  Level FlightAware Approximate
10:20AM 54.4568 -23.5597 101° East  Level FlightAware Approximate
10:21AM 54.4290 -23.3151 101° East  Level FlightAware Approximate
10:22AM 54.4008 -23.0709 101° East  Level FlightAware Approximate
10:23AM 54.3721 -22.8270 101° East  Level FlightAware Approximate
10:24AM 54.3429 -22.5834 102° East  Level FlightAware Approximate
10:25AM 54.3132 -22.3402 102° East  Level FlightAware Approximate
10:26AM 54.2830 -22.0973 102° East  Level FlightAware Approximate
10:27AM 54.2523 -21.8548 102° East  Level FlightAware Approximate
10:28AM 54.2212 -21.6127 102° East  Level FlightAware Approximate
10:29AM 54.1895 -21.3709 103° East  Level FlightAware Approximate
10:30AM 54.1574 -21.1295 103° East  Level FlightAware Approximate
10:31AM 54.1248 -20.8885 103° East  Level FlightAware Approximate
10:32AM 54.0917 -20.6479 103° East  Level FlightAware Approximate
10:33AM 54.0582 -20.4076 103° East  Level FlightAware Approximate
10:34AM 54.0241 -20.1677 103° East  Level FlightAware Approximate
10:35AM 53.9950 -19.9266 97° East  Level FlightAware Approximate
10:36AM 53.9778 -19.6819 97° East  Level FlightAware Approximate
10:37AM 53.9602 -19.4374 97° East  Level FlightAware Approximate
10:38AM 53.9420 -19.1931 97° East  Level FlightAware Approximate
10:39AM 53.9234 -18.9490 97° East  Level FlightAware Approximate
10:40AM 53.9043 -18.7051 97° East  Level FlightAware Approximate
10:41AM 53.8847 -18.4615 98° East  Level FlightAware Approximate
10:42AM 53.8645 -18.2181 98° East  Level FlightAware Approximate
10:43AM 53.8439 -17.9749 98° East  Level FlightAware Approximate
10:44AM 53.8228 -17.7320 98° East  Level FlightAware Approximate
10:45AM 53.8012 -17.4893 98° East  Level FlightAware Approximate
10:46AM 53.7792 -17.2468 99° East  Level FlightAware Approximate
10:47AM 53.7566 -17.0047 99° East  Level FlightAware Approximate
10:48AM 53.7336 -16.7628 99° East  Level FlightAware Approximate
10:49AM 53.7100 -16.5211 99° East  Level FlightAware Approximate
10:50AM 53.6860 -16.2798 99° East  Level FlightAware Approximate
10:51AM 53.6615 -16.0387 100° East  Level FlightAware Approximate
10:52AM 53.6365 -15.7978 100° East  Level FlightAware Approximate
10:53AM 53.6110 -15.5573 100° East  Level FlightAware Approximate
10:54AM 53.5850 -15.3171 100° East  Level FlightAware Approximate
10:55AM 53.5586 -15.0772 100° East  Level FlightAware Approximate
10:56AM 53.5316 -14.8376 101° East  Level FlightAware Approximate
10:56AM 52.8250 -12.4330 101° East 540 621 35,000  Level FlightAware
10:57AM 53.5040 -14.5983 101° East  Level FlightAware Approximate
10:57AM 52.8120 -12.2680 97° East 540 621 35,000  Level FlightAware
10:57AM 52.8030 -12.1670 98° East 542 624 35,000  Level FlightAware
10:58AM 52.7900 -12.0020 97° East 544 626 35,000  Level FlightAware
10:58AM 52.7760 -11.8350 98° East 545 627 35,000  Level FlightAware
10:59AM 52.7650 -11.7130 98° East 546 628 35,000 780 Level FlightAware
11:00AM 52.7480 -11.5130 98° East 540 621 36,100 1,020 Climbing FlightAware
11:01AM 52.7260 -11.2580 98° East 547 629 36,900 540 Climbing FlightAware
11:01AM 52.7130 -11.1170 99° East 547 629 37,000 60 Climbing FlightAware
11:02AM 52.7000 -10.9730 98° East 546 628 37,000  Level FlightAware
11:03AM 52.6840 -10.8010 99° East 547 629 37,000  Level FlightAware
11:03AM 52.6720 -10.6750 99° East 545 627 37,000  Level FlightAware
11:04AM 52.6480 -10.4300 99° East 543 625 37,000  Level FlightAware
11:05AM 52.6350 -10.2930 99° East 540 621 37,000  Level FlightAware
11:05AM 52.6230 -10.1710 99° East 537 618 37,000  Level FlightAware
11:06AM 52.6050 -9.9910 99° East 534 615 37,000  Level FlightAware
11:07AM 52.5900 -9.8480 100° East 530 610 37,000  Level FlightAware
11:07AM 52.5790 -9.7410 100° East 530 610 37,000  Level FlightAware
11:09AM 52.6391 -10.3344 280° West 529 609 37,000  Level FlightAware ADS-B
11:09AM 52.5210 -9.1890 99° East 527 606 37,000  Level FlightAware
11:10AM 52.5080 -9.0690 99° East 527 606 37,000  Level FlightAware
11:10AM 52.4997 -8.9955 99° East 474 545 37,000  Level FlightAware UK
11:10AM 52.4930 -8.9300 99° East 527 606 37,000 -240 Level FlightAware
11:11AM 52.4868 -8.8770 99° East 468 539 36,900  Descending FlightAware UK
11:11AM 52.4900 -8.9040 100° East 530 610 37,000  Climbing FlightAware
11:11AM 52.4737 -8.7585 99° East 468 539 36,900 -180 Descending FlightAware UK
11:12AM 52.4605 -8.6404 100° East 472 543 36,900 120 Level FlightAware UK
11:12AM 52.4570 -8.6080 100° East 534 615 37,000  Climbing FlightAware
11:12AM 52.4470 -8.5215 100° East 472 543 36,900  Descending FlightAware UK
11:13AM 52.4547 -8.5886 101° East 534 615 37,000 120 Climbing FlightAware ADS-B
11:13AM 52.4351 -8.4167 101° East 542 624 37,100  Climbing FlightAware ADS-B
11:14AM 52.3914 -8.0409 101° East 482 555 37,000 -120 Descending FlightAware UK
11:15AM 52.4039 -8.1470 101° East 546 628 37,000  Level FlightAware ADS-B
11:15AM 52.3625 -7.7955 101° East 482 555 37,000  Level FlightAware UK
11:16AM 52.3477 -7.6744 101° East 484 557 37,000  Level FlightAware UK
11:16AM 52.3330 -7.5539 101° East 484 557 37,000  Level FlightAware UK
11:16AM 52.3294 -7.5289 101° East 541 623 37,000  Level FlightAware ADS-B
11:17AM 52.3155 -7.4159 101° East 539 620 37,000 -120 Level FlightAware ADS-B
11:17AM 52.3022 -7.3084 101° East 535 616 36,900  Descending FlightAware ADS-B
11:18AM 52.2823 -7.1497 102° East 538 619 37,000 60 Climbing FlightAware ADS-B
11:18AM 52.2670 -7.0305 102° East 542 624 37,000  Level FlightAware ADS-B (EIDW / DUB)
11:19AM 52.2609 -6.9829 102° East 541 623 37,000  Level FlightAware ADS-B (LESA / SLM)
11:19AM 52.2453 -6.8625 102° East 546 628 37,000  Level FlightAware ADS-B (EIDW / DUB)
11:20AM 52.2300 -6.7437 102° East 544 626 37,000  Level FlightAware ADS-B
11:20AM 52.2115 -6.6007 102° East 541 623 37,000  Level FlightAware ADS-B (LESA / SLM)
11:21AM 52.1944 -6.4718 102° East 539 620 37,000  Level FlightAware ADS-B
11:21AM 52.1770 -6.3415 102° East 537 618 37,000  Level FlightAware ADS-B (LESA / SLM)
11:22AM 52.1589 -6.2074 102° East 536 617 37,000  Level FlightAware ADS-B (LESA / SLM)
11:22AM 52.1433 -6.0927 102° East 535 616 37,000  Level FlightAware ADS-B (LESA / SLM)
11:23AM 52.1393 -6.0623 102° East 535 616 37,000  Level FlightAware ADS-B
11:23AM 52.1113 -5.8114 100° East 529 609 37,000  Level FlightAware ADS-B (LESA / SLM)
11:24AM 52.0969 -5.6839 100° East 526 605 37,000  Level FlightAware ADS-B (LESA / SLM)
11:25AM 52.0839 -5.5707 101° East 523 602 37,000  Level FlightAware ADS-B (LESA / SLM)
11:25AM 52.0814 -5.5498 101° East 521 600 37,000  Level FlightAware ADS-B
11:26AM 52.0543 -5.3184 101° East 518 596 37,000 -120 Level FlightAware ADS-B
11:26AM 52.0411 -5.2063 101° East 515 593 36,900 -120 Descending FlightAware ADS-B (LESA / SLM)
11:27AM 52.0261 -5.0817 101° East 470 541 36,900 120 Level FlightAware UK
11:27AM 52.0260 -5.0805 101° East 512 589 37,000 120 Climbing FlightAware ADS-B
11:27AM 52.0094 -4.9425 101° East 507 583 37,000  Level FlightAware ADS-B
11:28AM 51.9946 -4.8215 101° East 505 581 37,000  Level FlightAware ADS-B (EGCW)
11:28AM 51.9813 -4.7140 101° East 502 578 37,000  Level FlightAware ADS-B (EGCW)
11:29AM 51.9756 -4.6694 102° East 500 575 37,000 -180 Level FlightAware ADS-B
11:29AM 51.9617 -4.5579 101° East 498 573 36,900  Descending FlightAware ADS-B
11:30AM 51.9470 -4.4414 101° East 497 572 37,000 60 Climbing FlightAware ADS-B (EGCW)
11:30AM 51.9328 -4.3297 102° East 497 572 37,000  Level FlightAware ADS-B (EGCW)
11:30AM 51.9212 -4.2389 102° East 499 574 37,000  Level FlightAware ADS-B
11:31AM 51.9190 -4.2227 102° East 499 574 37,000  Level FlightAware ADS-B
11:31AM 51.9165 -4.2034 102° East 500 575 37,000  Level FlightAware ADS-B (KCOD)
11:31AM 51.9079 -4.1367 102° East 503 579 37,000  Level FlightAware ADS-B
11:31AM 51.8971 -4.0530 102° East 508 585 37,000  Level FlightAware ADS-B (EGDX / DGX)
11:32AM 51.8884 -3.9813 101° East 511 588 37,000  Level FlightAware ADS-B (EGHH / BOH)
11:32AM 51.8801 -3.8919 99° East 516 594 37,000  Level FlightAware ADS-B (LESA / SLM)
11:33AM 51.8670 -3.7465 98° East 517 595 37,000  Level FlightAware ADS-B (LESA / SLM)
11:33AM 51.8622 -3.6953 98° East 514 592 37,000  Level FlightAware ADS-B (LESA / SLM)
11:33AM 51.8522 -3.5857 98° East 505 581 37,000  Level FlightAware ADS-B (EGDM)
11:34AM 51.8464 -3.5228 98° East 499 574 37,000  Level FlightAware ADS-B
11:34AM 51.8384 -3.4356 98° East 497 572 37,000  Level FlightAware ADS-B
11:34AM 51.8322 -3.3690 99° East 498 573 37,000  Level FlightAware ADS-B (EGDM)
11:35AM 51.8290 -3.3363 99° East 498 573 37,000  Level FlightAware ADS-B (EGDM)
11:35AM 51.8275 -3.3212 99° East 498 573 37,000  Level FlightAware ADS-B
11:35AM 51.8206 -3.2511 99° East 500 575 37,000  Level FlightAware ADS-B
11:35AM 51.8172 -3.2165 99° East 503 579 37,000  Level FlightAware ADS-B (KCOD)
11:35AM 51.8096 -3.1384 99° East 506 582 37,000  Level FlightAware ADS-B
11:36AM 51.8077 -3.1192 99° East 508 585 37,000  Level FlightAware ADS-B
11:36AM 51.7986 -3.0255 99° East 509 586 37,000  Level FlightAware ADS-B
11:36AM 51.7874 -2.9101 99° East 512 589 37,000  Level FlightAware ADS-B
11:36AM 51.7883 -2.9199 279° West 512 589 37,000  Level FlightAware ADS-B (EGDX / DGX)
11:37AM 51.7754 -2.7898 99° East 513 590 37,000  Level FlightAware ADS-B
11:37AM 51.7750 -2.7865 100° East 513 590 37,000  Level FlightAware ADS-B (EGDX / DGX)
11:37AM 51.7639 -2.6761 99° East 512 589 37,000  Level FlightAware ADS-B
11:37AM 51.7637 -2.6746 100° East 512 589 37,000  Level FlightAware ADS-B (EGCW)
11:38AM 51.7516 -2.5544 99° East 512 589 37,000  Level FlightAware ADS-B
11:38AM 51.7512 -2.5510 101° East 512 589 37,000  Level FlightAware ADS-B
11:39AM 51.7391 -2.4357 100° East 510 587 37,000  Level FlightAware ADS-B
11:39AM 51.7275 -2.3231 99° East 509 586 37,000  Level FlightAware ADS-B
11:40AM 51.7165 -2.2175 100° East 510 587 37,000  Level FlightAware ADS-B (EGCW)
11:40AM 51.7150 -2.2040 100° East 510 587 37,000  Level FlightAware ADS-B
11:40AM 51.7100 -2.1564 100° East 511 588 37,000  Level FlightAware ADS-B (EGDX / DGX)
11:40AM 51.7031 -2.0917 100° East 510 587 37,000 -240 Level FlightAware ADS-B
11:40AM 51.6980 -2.0436 100° East 510 587 36,900  Descending FlightAware ADS-B (EGDM)
11:40AM 51.6953 -2.0185 100° East 510 587 37,000 540 Climbing FlightAware ADS-B
11:40AM 51.6929 -1.9956 100° East 508 585 37,000  Level FlightAware ADS-B (EGHH / BOH)
11:41AM 51.6911 -1.9794 100° East 510 587 37,000  Level FlightAware ADS-B
11:41AM 51.6907 -1.9762 101° East 508 585 37,000  Level FlightAware ADS-B
11:41AM 51.6870 -1.9426 100° East 507 583 37,000  Level FlightAware ADS-B
11:41AM 51.6844 -1.9188 100° East 507 583 37,000  Level FlightAware ADS-B (EGHH / BOH)
11:41AM 51.6829 -1.9040 100° East 507 583 37,000  Level FlightAware ADS-B
11:41AM 51.6819 -1.8950 100° East 507 583 37,000  Level FlightAware ADS-B (EGHH / BOH)
11:41AM 51.6789 -1.8671 100° East 508 585 37,000  Level FlightAware ADS-B
11:41AM 51.6768 -1.8477 100° East 507 583 37,000  Level FlightAware ADS-B
11:41AM 51.6748 -1.8295 100° East 508 585 37,000  Level FlightAware ADS-B (KCOD)
11:41AM 51.6702 -1.7878 100° East 507 583 37,000  Level FlightAware ADS-B
11:42AM 51.6662 -1.7524 100° East 506 582 37,000  Level FlightAware ADS-B
11:42AM 51.6658 -1.7485 99° East 505 581 37,000  Level FlightAware ADS-B
11:42AM 51.6622 -1.7161 100° East 506 582 37,000  Level FlightAware ADS-B
11:42AM 51.6605 -1.7016 100° East 505 581 37,000  Level FlightAware ADS-B
11:42AM 51.6553 -1.6540 100° East 505 581 37,000  Level FlightAware ADS-B
11:42AM 51.6532 -1.6352 100° East 505 581 37,000  Level FlightAware ADS-B
11:42AM 51.6517 -1.6209 100° East 505 581 37,000  Level FlightAware ADS-B (KCOD)
11:42AM 51.6500 -1.6057 100° East 504 580 37,000  Level FlightAware ADS-B (EGLF / FAB)
11:42AM 51.6475 -1.5832 100° East 502 578 37,000  Level FlightAware ADS-B
11:42AM 51.6455 -1.5640 100° East 504 580 37,000  Level FlightAware ADS-B (KCOD)
11:43AM 51.6407 -1.5204 100° East 503 579 37,000  Level FlightAware ADS-B
11:43AM 51.6306 -1.4305 100° East 501 577 37,000  Level FlightAware ADS-B
11:43AM 51.6283 -1.4103 100° East 500 575 37,000  Level FlightAware ADS-B
11:43AM 51.6257 -1.3866 100° East 499 574 37,000  Level FlightAware ADS-B (EGHH / BOH)
11:44AM 51.6159 -1.3005 100° East 498 573 37,000  Level FlightAware ADS-B
11:44AM 51.6152 -1.2950 101° East 497 572 37,000  Level FlightAware ADS-B
11:44AM 51.6112 -1.2595 100° East 496 571 37,000  Level FlightAware ADS-B
11:44AM 51.6034 -1.1906 100° East 496 571 37,000  Level FlightAware ADS-B
11:44AM 51.5983 -1.1454 100° East 494 568 37,000  Level FlightAware ADS-B
11:44AM 51.5963 -1.1285 101° East 495 570 37,000  Level FlightAware ADS-B
11:44AM 51.5948 -1.1157 101° East 493 567 37,000  Level FlightAware ADS-B
11:45AM 51.5906 -1.0802 101° East 495 570 37,000  Level FlightAware ADS-B
11:45AM 51.5871 -1.0510 101° East 492 566 37,000  Level FlightAware ADS-B
11:45AM 51.5858 -1.0403 101° East 494 568 37,000  Level FlightAware ADS-B (EGDX / DGX)
11:45AM 51.5821 -1.0087 101° East 492 566 37,000  Level FlightAware ADS-B
11:45AM 51.5775 -0.9693 101° East 493 567 37,000  Level FlightAware ADS-B
11:45AM 51.5775 -0.9693 17° North 492 566 37,000  Level FlightAware ADS-B (KCOD)
11:45AM 51.5744 -0.9423 100° East 491 565 37,000  Level FlightAware ADS-B
11:45AM 51.5697 -0.9015 100° East 491 565 37,000  Level FlightAware ADS-B
11:46AM 51.5677 -0.8838 101° East 490 564 37,000  Level FlightAware ADS-B
11:46AM 51.5650 -0.8610 101° East 491 565 37,000  Level FlightAware ADS-B
11:46AM 51.5625 -0.8402 101° East 490 564 37,000  Level FlightAware ADS-B
11:46AM 51.5601 -0.8195 101° East 490 564 37,000  Level FlightAware ADS-B
11:46AM 51.5558 -0.7825 101° East 490 564 37,000  Level FlightAware ADS-B
11:46AM 51.5522 -0.7519 101° East 492 566 37,000  Level FlightAware ADS-B
11:46AM 51.5489 -0.7241 101° East 491 565 37,000  Level FlightAware ADS-B
11:46AM 51.5465 -0.7038 101° East 491 565 37,000  Level FlightAware ADS-B (EGHI / SOU)
11:46AM 51.5455 -0.6956 101° East 491 565 37,000  Level FlightAware ADS-B
11:47AM 51.5389 -0.6401 101° East 494 568 37,000  Level FlightAware ADS-B
11:47AM 51.5378 -0.6301 100° East 492 566 37,000  Level FlightAware ADS-B
11:47AM 51.5338 -0.5976 101° East 495 570 37,000  Level FlightAware ADS-B
11:47AM 51.5306 -0.5704 101° East 494 568 37,000  Level FlightAware ADS-B
11:47AM 51.5254 -0.5264 101° East 497 572 37,000  Level FlightAware ADS-B
11:47AM 51.5222 -0.4999 101° East 496 571 37,000  Level FlightAware ADS-B
11:47AM 51.5197 -0.4798 101° East 497 572 37,000  Level FlightAware ADS-B
11:48AM 51.5118 -0.4142 101° East 499 574 37,000  Level FlightAware ADS-B
11:48AM 51.5061 -0.3689 101° East 499 574 37,000  Level FlightAware ADS-B
11:48AM 51.4972 -0.2961 101° East 499 574 37,000  Level FlightAware ADS-B
11:48AM 51.4939 -0.2683 101° East 500 575 37,000  Level FlightAware ADS-B
11:49AM 51.4884 -0.2227 101° East 499 574 37,000  Level FlightAware ADS-B (EGHH / BOH)
11:49AM 51.4837 -0.1834 101° East 500 575 37,000  Level FlightAware ADS-B
11:49AM 51.4779 -0.1367 101° East 500 575 37,000  Level FlightAware ADS-B
11:49AM 51.4697 -0.0724 102° East 499 574 37,000  Level FlightAware ADS-B
11:49AM 51.4681 -0.0600 102° East 499 574 37,000  Level FlightAware ADS-B
11:49AM 51.4656 -0.0404 101° East 499 574 37,000  Level FlightAware ADS-B
11:50AM 51.4558 0.0372 101° East 499 574 37,000  Level FlightAware ADS-B
11:50AM 51.4485 0.0957 101° East 498 573 37,000  Level FlightAware ADS-B
11:50AM 51.4421 0.1461 101° East 497 572 37,000  Level FlightAware ADS-B
11:51AM 51.4338 0.2110 102° East 496 571 37,000  Level FlightAware ADS-B
11:51AM 51.4283 0.2543 102° East 496 571 37,000  Level FlightAware ADS-B
11:51AM 51.4200 0.3188 102° East 495 570 37,000  Level FlightAware ADS-B
11:51AM 51.4142 0.3637 102° East 495 570 37,000  Level FlightAware ADS-B
11:52AM 51.4060 0.4265 102° East 494 568 37,000  Level FlightAware ADS-B
11:52AM 51.3992 0.4786 102° East 494 568 37,000  Level FlightAware ADS-B
11:52AM 51.3945 0.5146 102° East 493 567 37,000  Level FlightAware ADS-B
11:52AM 51.3851 0.5869 102° East 493 567 37,000  Level FlightAware ADS-B
11:53AM 51.3728 0.6798 102° East 492 566 37,000  Level FlightAware ADS-B
11:53AM 51.3697 0.7027 102° East 492 566 37,000  Level FlightAware ADS-B
11:53AM 51.3596 0.7791 102° East 491 565 37,000  Level FlightAware ADS-B
11:53AM 51.3553 0.8118 102° East 491 565 37,000  Level FlightAware ADS-B
11:54AM 51.3424 0.9092 102° East 490 564 37,000  Level FlightAware ADS-B
11:54AM 51.3411 0.9193 102° East 490 564 37,000  Level FlightAware ADS-B
11:54AM 51.3264 1.0265 102° East 488 562 37,000  Level FlightAware ADS-B
11:54AM 51.3252 1.0351 102° East 488 562 37,000  Level FlightAware ADS-B
11:55AM 51.3214 1.0635 102° East 489 563 37,000  Level FlightAware ADS-B
11:55AM 51.3121 1.1328 102° East 489 563 37,000  Level FlightAware ADS-B
11:55AM 51.3090 1.1555 102° East 487 560 37,000  Level FlightAware ADS-B (EGHH / BOH)
11:55AM 51.3015 1.2109 102° East 488 562 37,000  Level FlightAware ADS-B
11:55AM 51.2975 1.2408 102° East 490 564 37,000  Level FlightAware ADS-B
11:55AM 51.2972 1.2426 104° East 489 563 37,000  Level FlightAware ADS-B
11:56AM 51.2899 1.2982 102° East 491 565 37,000  Level FlightAware ADS-B
11:56AM 51.2801 1.3874 100° East 494 568 37,000  Level FlightAware ADS-B
11:56AM 51.2778 1.4086 100° East 494 568 37,000  Level FlightAware ADS-B
11:57AM 51.2686 1.4962 100° East 494 568 37,000  Level FlightAware ADS-B
11:57AM 51.2576 1.5958 100° East 495 570 37,000  Level FlightAware ADS-B
11:58AM 51.2423 1.7302 100° East 494 568 37,000  Level FlightAware ADS-B
11:58AM 51.2281 1.8546 100° East 466 536 37,000  Level FlightAware UK
11:58AM 51.2265 1.8684 100° East 494 568 37,000  Level FlightAware ADS-B
11:59AM 51.2179 1.9428 100° East 493 567 37,000  Level FlightAware ADS-B
11:59AM 51.2020 2.0777 101° East 494 568 37,000  Level FlightAware ADS-B
12:00PM 51.1968 2.1211 101° East 492 566 37,000  Level FlightAware ADS-B (EGHH / BOH)
12:00PM 51.1839 2.2298 101° East 493 567 37,000  Level FlightAware ADS-B
12:00PM 51.1753 2.3012 101° East 492 566 37,000  Level FlightAware ADS-B
12:01PM 51.1597 2.4310 101° East 468 539 37,000  Level FlightAware UK
12:01PM 51.1519 2.4946 101° East 490 564 37,000  Level FlightAware ADS-B
12:02PM 51.1468 2.5372 101° East 492 566 37,000  Level FlightAware ADS-B
12:02PM 51.1429 2.5697 101° East 491 565 37,000  Level FlightAware ADS-B
12:02PM 51.1319 2.6598 101° East 490 564 37,000  Level FlightAware ADS-B
12:03PM 51.1149 2.7982 101° East 490 564 37,000 -120 Level FlightAware ADS-B
12:04PM 51.0947 2.9615 101° East 468 539 36,900  Descending FlightAware UK
12:04PM 51.0944 2.9609 101° East 486 559 37,000 60 Climbing FlightAware ADS-B
12:05PM 51.0624 3.2134 101° East 466 536 37,000  Level FlightAware UK
12:05PM 51.0492 3.3176 101° East 466 536 37,000  Level FlightAware UK
12:06PM 51.0485 3.3204 101° East 484 557 37,000  Level FlightAware ADS-B
12:06PM 51.0240 3.5070 101° East 483 556 37,000 -180 Level FlightAware
12:06PM 51.0223 3.5254 101° East 464 534 36,900  Descending FlightAware UK
12:07PM 51.0100 3.6200 101° East 482 555 37,000 60 Climbing FlightAware
12:07PM 50.9890 3.7770 102° East 480 552 37,000 -120 Level FlightAware
12:08PM 50.9698 3.9180 102° East 466 536 36,900  Descending FlightAware UK
12:09PM 50.9590 3.9940 102° East 478 550 37,000  Climbing FlightAware
12:09PM 50.9451 4.1026 102° East 464 534 36,900  Descending FlightAware UK
12:10PM 50.9250 4.2430 102° East 475 547 37,000  Climbing FlightAware
12:10PM 50.9223 4.2657 102° East 466 536 36,900  Descending FlightAware UK
12:10PM 50.9188 4.2888 102° East 476 548 37,000 60 Climbing FlightAware ADS-B
12:11PM 50.8939 4.4711 102° East 474 545 37,000 -420 Level FlightAware ADS-B
12:11PM 50.8799 4.5702 103° East 477 549 36,600 -1,860 Descending FlightAware ADS-B
12:12PM 50.8534 4.7535 103° East 464 534 34,400 -2,460 Descending FlightAware UK
12:12PM 50.8460 4.8030 103° East 484 557 33,800 -3,360 Descending FlightAware
12:14PM 50.8150 5.0190 103° East 493 567 30,100 -3,300 Descending FlightAware
12:14PM 50.7980 5.1400 102° East 484 557 28,600 -2,520 Descending FlightAware
12:15PM 50.7840 5.2450 102° East 475 547 27,300 -2,400 Descending FlightAware
12:15PM 50.7670 5.3690 102° East 463 533 25,800 -2,580 Descending FlightAware
12:16PM 50.7510 5.4760 103° East 480 552 24,400 -2,760 Descending FlightAware
12:16PM 50.7350 5.5960 102° East 478 550 22,800 -2,700 Descending FlightAware
12:17PM 50.7200 5.7060 102° East 484 557 21,400 -2,520 Descending FlightAware
12:17PM 50.7150 5.7670 97° East 479 551 20,600 -2,820 Descending FlightAware
12:18PM 50.7400 5.9400 77° East 465 535 18,300 -2,820 Descending FlightAware
12:19PM 50.7620 6.0600 74° East 454 522 16,600 -480 Descending FlightAware
12:19PM 50.7490 5.9860 255° West 463 533 17,700 -840 Climbing FlightAware ADS-B
12:20PM 50.7780 6.1490 74° East 459 528 15,400 -2,400 Descending FlightAware ADS-B
12:21PM 50.7860 6.1890 72° East 443 510 14,800 -7,140 Descending FlightAware ADS-B
12:21PM 50.8337 6.4341 73° East 425 489 11,000 -8,700 Descending FlightAware ADS-B (EDKL)
12:21PM 50.8469 6.5043 73° East 418 481 9,600 -2,700 Descending FlightAware ADS-B (EDKL)
12:22PM 50.9060 6.6433 56° Northeast 397 457 7,400 -2,700 Descending FlightAware ADS-B (EDKL)
12:22PM 50.9268 6.6879 53° Northeast 395 455 6,500 -2,940 Descending FlightAware ADS-B (EDKL)
12:23PM 50.9495 6.7349 53° Northeast 383 441 5,500 -2,640 Descending FlightAware ADS-B (EDKL)
12:23PM 50.9728 6.7821 52° Northeast 372 428 4,700 -2,640 Descending FlightAware ADS-B (EDKL)
12:23PM 50.9921 6.8227 53° Northeast 363 418 3,700 -2,940 Descending FlightAware ADS-B (EDKL)
12:24PM 51.0001 6.8477 63° Northeast 359 413 3,300 -2,580 Descending FlightAware ADS-B (EDKL)
12:24PM 51.0042 6.8725 75° East 354 407 2,900 -2,040 Descending FlightAware ADS-B (EDKL)
12:24PM 51.0048 6.8966 88° East 339 390 2,600 -900 Descending FlightAware ADS-B (EDKL)
12:24PM 51.0016 6.9236 101° East 322 371 2,600  Level FlightAware ADS-B (EDKL)
12:24PM 50.9916 6.9571 115° Southeast 294 338 2,600 -480 Level FlightAware ADS-B (EDKL)
12:25PM 50.9725 6.9898 133° Southeast 270 311 2,300 -1,260 Descending FlightAware ADS-B (EDKL)
12:25PM 50.9660 7.0013 132° Southeast 259 298 2,000 -1,500 Descending FlightAware ADS-B (EDKL)
12:25PM 50.9577 7.0179 128° Southeast 240 276 1,800 -1,200 Descending FlightAware ADS-B (EDKL)
12:25PM 50.9399 7.0424 139° Southeast 214 246 1,400 -1,080 Descending FlightAware ADS-B (EDKL)
12:26PM 50.9258 7.0632 137° Southeast 191 220 1,100 -960 Descending FlightAware ADS-B (EDKL)
12:26PM 50.9201 7.0715 138° Southeast 173 199 800 -960 Descending FlightAware ADS-B (EDKL)
12:27PM 50.8910 7.1140 137° Southeast 148 170 100 -960 Descending FlightAware
12:27PM 50.8790 7.1310 138° Southeast 147 169 -240 Descending FlightAware